createdAt,value
2022-12-01T00:02:35.000Z,42.59
2022-12-01T00:07:35.000Z,40.81
2022-12-01T00:12:35.000Z,40.71
2022-12-01T00:17:34.000Z,40.31
2022-12-01T00:22:35.000Z,41.63
2022-12-01T00:27:34.000Z,42.63
2022-12-01T00:32:35.000Z,41.26
2022-12-01T00:37:34.000Z,43.26
2022-12-01T00:42:35.000Z,41.17
2022-12-01T00:52:35.000Z,43.8
2022-12-01T00:57:34.000Z,42.12
2022-12-01T01:02:35.000Z,42.32
2022-12-01T01:07:35.000Z,41.44
2022-12-01T01:12:35.000Z,39.64
2022-12-01T01:17:34.000Z,37.43
2022-12-01T01:22:35.000Z,38.68
2022-12-01T01:27:35.000Z,38.68
2022-12-01T01:32:34.000Z,38.15
2022-12-01T01:37:34.000Z,39.97
2022-12-01T01:42:35.000Z,39.4
2022-12-01T01:47:34.000Z,40.79
2022-12-01T01:52:35.000Z,43.35
2022-12-01T01:57:34.000Z,43.05
2022-12-01T02:02:35.000Z,40.86
2022-12-01T02:07:34.000Z,41.66
2022-12-01T02:12:35.000Z,41.02
2022-12-01T02:17:34.000Z,41.42
2022-12-01T02:22:35.000Z,40.6
2022-12-01T02:27:34.000Z,40.7
2022-12-01T02:32:35.000Z,41.92
2022-12-01T02:37:35.000Z,41.92
2022-12-01T02:42:34.000Z,42.37
2022-12-01T02:47:35.000Z,41.98
2022-12-01T02:52:35.000Z,42.28
2022-12-01T02:57:35.000Z,41.29
2022-12-01T03:02:34.000Z,39.36
2022-12-01T03:07:35.000Z,37.65
2022-12-01T03:12:35.000Z,39.75
2022-12-01T03:17:34.000Z,38.62
2022-12-01T03:27:35.000Z,41.78
2022-12-01T03:32:35.000Z,40.68
2022-12-01T03:37:34.000Z,39.19
2022-12-01T03:42:35.000Z,38.03
2022-12-01T03:47:34.000Z,38
2022-12-01T03:52:35.000Z,38.94
2022-12-01T03:57:35.000Z,41.1
2022-12-01T04:02:35.000Z,40.36
2022-12-01T04:07:35.000Z,41.59
2022-12-01T04:12:35.000Z,44.7
2022-12-01T04:22:34.000Z,43.43
2022-12-01T04:27:35.000Z,40.96
2022-12-01T04:32:34.000Z,40.96
2022-12-01T04:37:34.000Z,38.82
2022-12-01T04:42:35.000Z,40.46
2022-12-01T04:47:34.000Z,39.09
2022-12-01T04:57:34.000Z,37.53
2022-12-01T05:02:35.000Z,36.93
2022-12-01T05:07:34.000Z,36.4
2022-12-01T05:12:35.000Z,36.4
2022-12-01T05:17:34.000Z,35.34
2022-12-01T05:23:13.000Z,36.14
2022-12-01T05:27:34.000Z,37.34
2022-12-01T05:32:35.000Z,39.06
2022-12-01T05:37:34.000Z,38.79
2022-12-01T05:42:35.000Z,42.61
2022-12-01T05:47:34.000Z,48.86
2022-12-01T05:52:35.000Z,41.06
2022-12-01T05:57:34.000Z,37.48
2022-12-01T06:02:34.000Z,57.9
2022-12-01T06:07:35.000Z,57.9
2022-12-01T06:12:34.000Z,62.1
2022-12-01T06:17:34.000Z,43.39
2022-12-01T06:22:34.000Z,37.54
2022-12-01T06:27:34.000Z,36.47
2022-12-01T06:32:35.000Z,38.43
2022-12-01T06:37:35.000Z,44.63
2022-12-01T06:42:35.000Z,49.93
2022-12-01T06:47:35.000Z,64.93
2022-12-01T06:52:35.000Z,59.93
2022-12-01T06:57:35.000Z,55.83
2022-12-01T07:07:35.000Z,52.97
2022-12-01T07:12:35.000Z,54.16
2022-12-01T07:17:34.000Z,66.22
2022-12-01T07:27:34.000Z,39.44
2022-12-01T07:32:34.000Z,36.38
2022-12-01T07:37:35.000Z,35.47
2022-12-01T07:47:35.000Z,33.52
2022-12-01T07:52:34.000Z,32.03
2022-12-01T08:02:34.000Z,32.48
2022-12-01T08:07:39.000Z,32.43
2022-12-01T08:12:34.000Z,32.65
2022-12-01T08:17:35.000Z,32.77
2022-12-01T08:22:34.000Z,39.66
2022-12-01T08:27:35.000Z,39.66
2022-12-01T08:32:34.000Z,45.86
2022-12-01T08:37:35.000Z,41.68
2022-12-01T08:42:34.000Z,33.54
2022-12-01T08:47:35.000Z,33.04
2022-12-01T08:52:34.000Z,33.31
2022-12-01T08:57:34.000Z,33.42
2022-12-01T09:02:34.000Z,34.62
2022-12-01T09:07:37.000Z,34.69
2022-12-01T09:12:35.000Z,34.1
2022-12-01T09:17:35.000Z,34.53
2022-12-01T09:22:35.000Z,33.87
2022-12-01T09:27:34.000Z,38.49
2022-12-01T09:32:35.000Z,39.41
2022-12-01T09:37:34.000Z,34.55
2022-12-01T09:42:35.000Z,34.55
2022-12-01T09:47:35.000Z,33.52
2022-12-01T09:57:35.000Z,32.34
2022-12-01T10:02:35.000Z,32.46
2022-12-01T10:07:34.000Z,30.23
2022-12-01T10:12:34.000Z,28.27
2022-12-01T10:17:35.000Z,28.3
2022-12-01T10:22:34.000Z,28.3
2022-12-01T10:27:35.000Z,27.73
2022-12-01T10:32:34.000Z,27.49
2022-12-01T10:37:35.000Z,27.51
2022-12-01T10:42:35.000Z,27.72
2022-12-01T10:47:34.000Z,27.65
2022-12-01T10:52:34.000Z,27.93
2022-12-01T10:57:35.000Z,30.73
2022-12-01T11:02:35.000Z,32.51
2022-12-01T11:07:35.000Z,35.93
2022-12-01T11:12:35.000Z,37.78
2022-12-01T11:17:34.000Z,36.79
2022-12-01T11:22:34.000Z,38.14
2022-12-01T11:27:35.000Z,38.81
2022-12-01T11:32:34.000Z,40.13
2022-12-01T11:37:35.000Z,40.13
2022-12-01T11:42:35.000Z,38.82
2022-12-01T11:47:35.000Z,37.99
2022-12-01T11:52:35.000Z,36.02
2022-12-01T11:57:44.000Z,33.28
2022-12-01T12:02:34.000Z,32.54
2022-12-01T12:07:34.000Z,33.05
2022-12-01T12:12:35.000Z,32.27
2022-12-01T12:17:34.000Z,32.09
2022-12-01T12:22:35.000Z,32.9
2022-12-01T12:27:35.000Z,35.94
2022-12-01T12:32:35.000Z,38.82
2022-12-01T12:37:35.000Z,39.6
2022-12-01T12:42:34.000Z,39.69
2022-12-01T12:47:35.000Z,38.39
2022-12-01T12:52:34.000Z,38.39
2022-12-01T12:57:35.000Z,38.44
2022-12-01T13:02:35.000Z,38.29
2022-12-01T13:07:35.000Z,38.92
2022-12-01T13:12:34.000Z,38.79
2022-12-01T13:17:34.000Z,40.37
2022-12-01T13:22:34.000Z,38.02
2022-12-01T13:27:34.000Z,39.39
2022-12-01T13:32:35.000Z,38.79
2022-12-01T13:37:35.000Z,39.22
2022-12-01T13:42:34.000Z,41.66
2022-12-01T13:47:35.000Z,40.26
2022-12-01T13:52:35.000Z,40.13
2022-12-01T13:57:34.000Z,39.19
2022-12-01T14:02:35.000Z,39.09
2022-12-01T14:07:35.000Z,39.09
2022-12-01T14:12:35.000Z,40.32
2022-12-01T14:17:34.000Z,42.15
2022-12-01T14:22:35.000Z,43.1
2022-12-01T14:27:35.000Z,44.88
2022-12-01T14:32:34.000Z,45.46
2022-12-01T14:37:35.000Z,46.78
2022-12-01T14:47:35.000Z,43.12
2022-12-01T14:52:35.000Z,45.76
2022-12-01T14:57:34.000Z,46.93
2022-12-01T15:02:35.000Z,45.9
2022-12-01T15:07:35.000Z,47.84
2022-12-01T15:12:35.000Z,47.84
2022-12-01T15:17:35.000Z,46.06
2022-12-01T15:22:34.000Z,46.01
2022-12-01T15:27:35.000Z,45.44
2022-12-01T15:32:35.000Z,42.5
2022-12-01T15:37:34.000Z,47.83
2022-12-01T15:42:34.000Z,41.61
2022-12-01T15:47:35.000Z,40.62
2022-12-01T15:52:34.000Z,41.01
2022-12-01T15:57:35.000Z,41.76
2022-12-01T16:02:35.000Z,39.27
2022-12-01T16:07:38.000Z,36.39
2022-12-01T16:12:34.000Z,39.38
2022-12-01T16:17:34.000Z,38.97
2022-12-01T16:22:35.000Z,38.97
2022-12-01T16:27:35.000Z,39.61
2022-12-01T16:32:35.000Z,40.08
2022-12-01T16:37:35.000Z,37
2022-12-01T16:42:34.000Z,35.49
2022-12-01T16:47:35.000Z,33.63
2022-12-01T16:52:55.000Z,37.2
2022-12-01T16:57:34.000Z,38.53
2022-12-01T17:02:35.000Z,41.44
2022-12-01T17:07:34.000Z,41.32
2022-12-01T17:12:35.000Z,41.23
2022-12-01T17:22:35.000Z,41.22
2022-12-01T17:27:35.000Z,40.83
2022-12-01T17:32:34.000Z,41.54
2022-12-01T17:37:35.000Z,41.35
2022-12-01T17:42:34.000Z,40.35
2022-12-01T17:47:35.000Z,42.23
2022-12-01T17:52:38.000Z,44.49
2022-12-01T17:57:35.000Z,46.65
2022-12-01T18:02:35.000Z,55.1
2022-12-01T18:07:35.000Z,59.91
2022-12-01T18:12:34.000Z,59.91
2022-12-01T18:17:35.000Z,55.88
2022-12-01T18:22:34.000Z,46.84
2022-12-01T18:27:35.000Z,46.47
2022-12-01T18:32:35.000Z,43.81
2022-12-01T18:37:35.000Z,42.09
2022-12-01T18:42:35.000Z,43.04
2022-12-01T18:52:34.000Z,44.06
2022-12-01T18:57:34.000Z,46.04
2022-12-01T19:02:35.000Z,45.76
2022-12-01T19:07:40.000Z,45.45
2022-12-01T19:12:35.000Z,43.66
2022-12-01T19:17:34.000Z,41.93
2022-12-01T19:22:35.000Z,41.58
2022-12-01T19:27:35.000Z,41.51
2022-12-01T19:32:34.000Z,41.88
2022-12-01T19:37:35.000Z,43.47
2022-12-01T19:42:35.000Z,49.17
2022-12-01T19:47:35.000Z,46.94
2022-12-01T19:52:34.000Z,50.87
2022-12-01T19:57:35.000Z,49.61
2022-12-01T20:02:39.000Z,49.61
2022-12-01T20:07:35.000Z,46.27
2022-12-01T20:12:35.000Z,54.7
2022-12-01T20:17:34.000Z,55.76
2022-12-01T20:22:35.000Z,54.78
2022-12-01T20:27:34.000Z,58.89
2022-12-01T20:32:35.000Z,59.05
2022-12-01T20:37:34.000Z,63.49
2022-12-01T20:42:35.000Z,65.93
2022-12-01T20:47:34.000Z,67.07
2022-12-01T20:52:35.000Z,64.37
2022-12-01T20:57:34.000Z,73.88
2022-12-01T21:02:35.000Z,69.21
2022-12-01T21:07:34.000Z,67.5
2022-12-01T21:12:34.000Z,72.03
2022-12-01T21:17:35.000Z,72.03
2022-12-01T21:22:35.000Z,76.21
2022-12-01T21:27:34.000Z,72.92
2022-12-01T21:32:35.000Z,74.44
2022-12-01T21:37:34.000Z,76.73
2022-12-01T21:42:35.000Z,76.46
2022-12-01T21:47:34.000Z,76.76
2022-12-01T21:52:35.000Z,73.6
2022-12-01T21:57:34.000Z,70.09
2022-12-01T22:02:35.000Z,69.6
2022-12-01T22:07:34.000Z,64.62
2022-12-01T22:12:35.000Z,63.09
2022-12-01T22:17:34.000Z,62.26
2022-12-01T22:22:35.000Z,76.1
2022-12-01T22:27:35.000Z,76.1
2022-12-01T22:32:34.000Z,73.79
2022-12-01T22:37:34.000Z,61.23
2022-12-01T22:42:35.000Z,55.37
2022-12-01T22:47:34.000Z,50.45
2022-12-01T22:57:35.000Z,50.03
2022-12-01T23:02:34.000Z,47.09
2022-12-01T23:07:35.000Z,45.95
2022-12-01T23:12:34.000Z,42.54
2022-12-01T23:17:35.000Z,42.54
2022-12-01T23:22:34.000Z,40.31
2022-12-01T23:27:34.000Z,41.77
2022-12-01T23:32:35.000Z,41.81
2022-12-01T23:37:34.000Z,44.81
2022-12-01T23:42:35.000Z,44.48
2022-12-01T23:47:35.000Z,48.35
2022-12-01T23:52:35.000Z,49.22
2022-12-01T23:57:34.000Z,46.52
